Terminal Aerodrome Forecast
Issued by NWS Wilmington, OH

Home | Current Version | Previous Version | Text Only | Print | Product List | Glossary On
Versions: 1 2 3 4 5 6 7 8 9 10 11 12 13 14 15 16 17 18 19 20
000
FTUS41 KILN 301100
TAFCVG
TAF
KCVG 301132Z 3012/3118 19008KT P6SM SCT250
     FM301600 21011G17KT P6SM SCT050 SCT100 OVC250
     FM302100 21008KT P6SM VCTS SCT040CB BKN090 OVC250
     FM310100 17008KT P6SM -SHRA VCTS SCT020CB OVC080
     FM310900 18006KT 4SM -SHRA BR VCTS OVC015CB=

USA.gov is the U.S. government's official web portal to all federal, state and local government web resources and services.